sensor_id;sensor_type;location;lat;lon;timestamp;pressure;altitude;pressure_sealevel;temperature;humidity
8717;BME280;4395;48.554;8.820;2023-05-13T00:00:28;95827.69;;;10.86;100.00
8717;BME280;4395;48.554;8.820;2023-05-13T00:02:31;95838.72;;;10.85;100.00
8717;BME280;4395;48.554;8.820;2023-05-13T00:04:34;95794.28;;;10.23;100.00
8717;BME280;4395;48.554;8.820;2023-05-13T00:06:37;95830.09;;;10.34;100.00
8717;BME280;4395;48.554;8.820;2023-05-13T00:08:40;95242.44;;;6.67;100.00
8717;BME280;4395;48.554;8.820;2023-05-13T00:10:43;95825.53;;;10.13;100.00
8717;BME280;4395;48.554;8.820;2023-05-13T00:12:46;95826.19;;;10.20;100.00
8717;BME280;4395;48.554;8.820;2023-05-13T00:14:50;95821.84;;;10.19;100.00
8717;BME280;4395;48.554;8.820;2023-05-13T00:16:53;95757.31;;;9.65;100.00
8717;BME280;4395;48.554;8.820;2023-05-13T00:18:56;95817.19;;;9.87;100.00
8717;BME280;4395;48.554;8.820;2023-05-13T00:20:59;95818.00;;;10.10;100.00
8717;BME280;4395;48.554;8.820;2023-05-13T00:23:02;95824.78;;;9.95;100.00
8717;BME280;4395;48.554;8.820;2023-05-13T00:25:05;95821.00;;;9.91;100.00
8717;BME280;4395;48.554;8.820;2023-05-13T00:27:08;95821.22;;;10.12;100.00
8717;BME280;4395;48.554;8.820;2023-05-13T00:29:12;95820.69;;;9.88;100.00
8717;BME280;4395;48.554;8.820;2023-05-13T00:31:16;95820.38;;;9.84;100.00
8717;BME280;4395;48.554;8.820;2023-05-13T00:33:19;95821.06;;;9.96;100.00
8717;BME280;4395;48.554;8.820;2023-05-13T00:35:22;95814.56;;;9.92;100.00
8717;BME280;4395;48.554;8.820;2023-05-13T00:37:24;95809.63;;;9.84;100.00
8717;BME280;4395;48.554;8.820;2023-05-13T00:39:27;95816.56;;;9.80;100.00
8717;BME280;4395;48.554;8.820;2023-05-13T00:41:30;95785.34;;;9.74;100.00
8717;BME280;4395;48.554;8.820;2023-05-13T00:43:33;95813.56;;;9.98;100.00
8717;BME280;4395;48.554;8.820;2023-05-13T00:45:36;95820.59;;;10.05;100.00
8717;BME280;4395;48.554;8.820;2023-05-13T00:47:41;95818.00;;;10.10;100.00
8717;BME280;4395;48.554;8.820;2023-05-13T00:49:44;95761.38;;;9.89;100.00
8717;BME280;4395;48.554;8.820;2023-05-13T00:51:47;95820.06;;;10.24;100.00
8717;BME280;4395;48.554;8.820;2023-05-13T00:53:51;95812.88;;;10.30;100.00
8717;BME280;4395;48.554;8.820;2023-05-13T00:55:54;95825.59;;;10.40;100.00
8717;BME280;4395;48.554;8.820;2023-05-13T00:57:57;95810.13;;;10.25;100.00
8717;BME280;4395;48.554;8.820;2023-05-13T01:00:01;95822.31;;;10.32;100.00
8717;BME280;4395;48.554;8.820;2023-05-13T01:02:12;95816.00;;;10.22;100.00
8717;BME280;4395;48.554;8.820;2023-05-13T01:04:26;95814.38;;;10.21;100.00
8717;BME280;4395;48.554;8.820;2023-05-13T01:06:42;95818.59;;;10.17;100.00
8717;BME280;4395;48.554;8.820;2023-05-13T01:09:02;95818.28;;;10.13;100.00
8717;BME280;4395;48.554;8.820;2023-05-13T01:11:12;95810.19;;;10.08;100.00
8717;BME280;4395;48.554;8.820;2023-05-13T01:13:18;95788.84;;;9.75;100.00
8717;BME280;4395;48.554;8.820;2023-05-13T01:15:25;95815.44;;;9.98;100.00
8717;BME280;4395;48.554;8.820;2023-05-13T01:17:31;95795.66;;;9.82;100.00
8717;BME280;4395;48.554;8.820;2023-05-13T01:19:40;95798.91;;;9.84;100.00
8717;BME280;4395;48.554;8.820;2023-05-13T01:21:51;95820.50;;;9.94;100.00
8717;BME280;4395;48.554;8.820;2023-05-13T01:23:55;95824.31;;;9.98;100.00
8717;BME280;4395;48.554;8.820;2023-05-13T01:25:59;95823.22;;;9.99;100.00
8717;BME280;4395;48.554;8.820;2023-05-13T01:28:04;95821.00;;;9.91;100.00
8717;BME280;4395;48.554;8.820;2023-05-13T01:30:09;95824.78;;;9.95;100.00
8717;BME280;4395;48.554;8.820;2023-05-13T01:32:12;95828.66;;;10.05;100.00
8717;BME280;4395;48.554;8.820;2023-05-13T01:34:16;95829.41;;;10.00;100.00
8717;BME280;4395;48.554;8.820;2023-05-13T01:36:19;95826.59;;;10.12;100.00
8717;BME280;4395;48.554;8.820;2023-05-13T01:38:25;95833.22;;;10.04;100.00
8717;BME280;4395;48.554;8.820;2023-05-13T01:40:32;95829.41;;;10.00;100.00
8717;BME280;4395;48.554;8.820;2023-05-13T01:42:38;95748.53;;;9.48;100.00
8717;BME280;4395;48.554;8.820;2023-05-13T01:44:42;95835.97;;;9.87;100.00
8717;BME280;4395;48.554;8.820;2023-05-13T01:46:46;95832.59;;;9.97;100.00
8717;BME280;4395;48.554;8.820;2023-05-13T01:48:51;95832.47;;;10.09;100.00
8717;BME280;4395;48.554;8.820;2023-05-13T01:50:54;95828.63;;;10.21;100.00
8717;BME280;4395;48.554;8.820;2023-05-13T01:52:57;95824.13;;;10.27;100.00
8717;BME280;4395;48.554;8.820;2023-05-13T01:55:02;95830.81;;;10.24;100.00
8717;BME280;4395;48.554;8.820;2023-05-13T01:57:05;95838.03;;;10.02;100.00
8717;BME280;4395;48.554;8.820;2023-05-13T01:59:09;95828.66;;;10.05;100.00
8717;BME280;4395;48.554;8.820;2023-05-13T02:01:11;95826.53;;;9.85;100.00
8717;BME280;4395;48.554;8.820;2023-05-13T02:03:14;95733.22;;;9.26;100.00
8717;BME280;4395;48.554;8.820;2023-05-13T02:05:18;95829.91;;;9.75;100.00
8717;BME280;4395;48.554;8.820;2023-05-13T02:07:21;95834.47;;;9.96;100.00
8717;BME280;4395;48.554;8.820;2023-05-13T02:09:24;95823.53;;;10.03;100.00
8717;BME280;4395;48.554;8.820;2023-05-13T02:11:28;95821.16;;;10.07;100.00
8717;BME280;4395;48.554;8.820;2023-05-13T02:13:31;95827.59;;;10.06;100.00
8717;BME280;4395;48.554;8.820;2023-05-13T02:15:34;95831.47;;;10.15;100.00
8717;BME280;4395;48.554;8.820;2023-05-13T02:17:38;95832.97;;;10.06;100.00
8717;BME280;4395;48.554;8.820;2023-05-13T02:19:41;95832.97;;;10.06;100.00
8717;BME280;4395;48.554;8.820;2023-05-13T02:21:44;95838.22;;;9.95;100.00
8717;BME280;4395;48.554;8.820;2023-05-13T02:23:47;95823.78;;;10.02;100.00
8717;BME280;4395;48.554;8.820;2023-05-13T02:25:49;95827.91;;;10.09;100.00
8717;BME280;4395;48.554;8.820;2023-05-13T02:27:54;95829.41;;;10.00;100.00
8717;BME280;4395;48.554;8.820;2023-05-13T02:29:56;95832.41;;;10.04;100.00
8717;BME280;4395;48.554;8.820;2023-05-13T02:31:59;95743.78;;;9.55;100.00
8717;BME280;4395;48.554;8.820;2023-05-13T02:34:02;95831.78;;;10.18;100.00
8717;BME280;4395;48.554;8.820;2023-05-13T02:36:05;95830.84;;;10.08;100.00
8717;BME280;4395;48.554;8.820;2023-05-13T02:38:09;95829.91;;;9.97;100.00
8717;BME280;4395;48.554;8.820;2023-05-13T02:40:12;95823.97;;;9.95;100.00
8717;BME280;4395;48.554;8.820;2023-05-13T02:42:15;95839.91;;;10.02;100.00
8717;BME280;4395;48.554;8.820;2023-05-13T02:44:20;95843.09;;;9.98;100.00
8717;BME280;4395;48.554;8.820;2023-05-13T02:46:23;95832.78;;;10.12;100.00
8717;BME280;4395;48.554;8.820;2023-05-13T02:48:28;95791.59;;;9.80;100.00
8717;BME280;4395;48.554;8.820;2023-05-13T02:50:30;95833.59;;;10.13;100.00
8717;BME280;4395;48.554;8.820;2023-05-13T02:52:33;95825.47;;;10.08;100.00
8717;BME280;4395;48.554;8.820;2023-05-13T02:54:37;95830.78;;;10.03;100.00
8717;BME280;4395;48.554;8.820;2023-05-13T02:56:39;95827.47;;;9.95;100.00
8717;BME280;4395;48.554;8.820;2023-05-13T02:58:42;95829.72;;;10.04;100.00
8717;BME280;4395;48.554;8.820;2023-05-13T03:00:47;95829.16;;;10.02;100.00
8717;BME280;4395;48.554;8.820;2023-05-13T03:02:52;95823.22;;;9.99;100.00
8717;BME280;4395;48.554;8.820;2023-05-13T03:04:56;95827.53;;;10.00;100.00
8717;BME280;4395;48.554;8.820;2023-05-13T03:06:59;95747.41;;;9.44;100.00
8717;BME280;4395;48.554;8.820;2023-05-13T03:09:02;95818.31;;;9.91;100.00
8717;BME280;4395;48.554;8.820;2023-05-13T03:11:06;95818.13;;;9.98;100.00
8717;BME280;4395;48.554;8.820;2023-05-13T03:13:09;95824.41;;;9.87;100.00
8717;BME280;4395;48.554;8.820;2023-05-13T03:15:13;95816.75;;;9.95;100.00
8717;BME280;4395;48.554;8.820;2023-05-13T03:17:18;95813.63;;;10.04;100.00
8717;BME280;4395;48.554;8.820;2023-05-13T03:19:23;95821.44;;;9.83;100.00
8717;BME280;4395;48.554;8.820;2023-05-13T03:21:27;95821.75;;;9.87;100.00
8717;BME280;4395;48.554;8.820;2023-05-13T03:23:32;95823.09;;;9.89;100.00
8717;BME280;4395;48.554;8.820;2023-05-13T03:25:36;95825.47;;;9.86;100.00
8717;BME280;4395;48.554;8.820;2023-05-13T03:27:39;95819.75;;;9.77;100.00
8717;BME280;4395;48.554;8.820;2023-05-13T03:29:43;95832.84;;;9.74;100.00
8717;BME280;4395;48.554;8.820;2023-05-13T03:31:46;95825.59;;;9.74;100.00
8717;BME280;4395;48.554;8.820;2023-05-13T03:33:50;95831.44;;;9.49;100.00
8717;BME280;4395;48.554;8.820;2023-05-13T03:35:53;95828.09;;;9.59;100.00
8717;BME280;4395;48.554;8.820;2023-05-13T03:38:01;95832.88;;;9.57;100.00
8717;BME280;4395;48.554;8.820;2023-05-13T03:40:06;95835.84;;;9.77;100.00
8717;BME280;4395;48.554;8.820;2023-05-13T03:42:09;95841.63;;;9.69;100.00
8717;BME280;4395;48.554;8.820;2023-05-13T03:44:12;95837.41;;;9.73;100.00
8717;BME280;4395;48.554;8.820;2023-05-13T03:46:15;95835.94;;;9.65;100.00
8717;BME280;4395;48.554;8.820;2023-05-13T03:48:18;95834.22;;;9.76;100.00
8717;BME280;4395;48.554;8.820;2023-05-13T03:50:22;95839.50;;;9.71;100.00
8717;BME280;4395;48.554;8.820;2023-05-13T03:52:26;95832.59;;;9.75;100.00
8717;BME280;4395;48.554;8.820;2023-05-13T03:54:29;95837.72;;;9.77;100.00
8717;BME280;4395;48.554;8.820;2023-05-13T03:56:31;95832.78;;;9.68;100.00
8717;BME280;4395;48.554;8.820;2023-05-13T03:58:35;95837.84;;;9.48;100.00
8717;BME280;4395;48.554;8.820;2023-05-13T04:00:39;95838.59;;;9.44;100.00
8717;BME280;4395;48.554;8.820;2023-05-13T04:02:42;95833.63;;;9.52;100.00
8717;BME280;4395;48.554;8.820;2023-05-13T04:04:46;95830.06;;;9.47;100.00
8717;BME280;4395;48.554;8.820;2023-05-13T04:06:50;95826.88;;;9.50;100.00
8717;BME280;4395;48.554;8.820;2023-05-13T04:08:53;95832.25;;;9.50;100.00
8717;BME280;4395;48.554;8.820;2023-05-13T04:10:55;95836.69;;;9.61;100.00
8717;BME280;4395;48.554;8.820;2023-05-13T04:12:59;95811.59;;;9.50;100.00
8717;BME280;4395;48.554;8.820;2023-05-13T04:15:03;95834.44;;;9.53;100.00
8717;BME280;4395;48.554;8.820;2023-05-13T04:17:05;95838.31;;;9.62;100.00
8717;BME280;4395;48.554;8.820;2023-05-13T04:19:08;95846.72;;;9.49;100.00
8717;BME280;4395;48.554;8.820;2023-05-13T04:21:12;95840.72;;;9.42;100.00
8717;BME280;4395;48.554;8.820;2023-05-13T04:23:16;95841.69;;;9.35;100.00
8717;BME280;4395;48.554;8.820;2023-05-13T04:25:19;95851.84;;;9.50;100.00
8717;BME280;4395;48.554;8.820;2023-05-13T04:27:21;95849.25;;;9.39;100.00
8717;BME280;4395;48.554;8.820;2023-05-13T04:29:29;95860.16;;;9.32;100.00
8717;BME280;4395;48.554;8.820;2023-05-13T04:31:32;95846.31;;;9.40;100.00
8717;BME280;4395;48.554;8.820;2023-05-13T04:33:35;95859.16;;;9.38;100.00
8717;BME280;4395;48.554;8.820;2023-05-13T04:35:38;95861.59;;;9.40;100.00
8717;BME280;4395;48.554;8.820;2023-05-13T04:37:42;95860.78;;;9.56;100.00
8717;BME280;4395;48.554;8.820;2023-05-13T04:39:49;95866.28;;;9.66;100.00
8717;BME280;4395;48.554;8.820;2023-05-13T04:41:56;95859.41;;;9.53;100.00
8717;BME280;4395;48.554;8.820;2023-05-13T04:43:58;95867.63;;;9.47;100.00
8717;BME280;4395;48.554;8.820;2023-05-13T04:46:02;95862.75;;;9.44;100.00
8717;BME280;4395;48.554;8.820;2023-05-13T04:48:06;95867.53;;;9.42;100.00
8717;BME280;4395;48.554;8.820;2023-05-13T04:50:09;95868.91;;;9.61;100.00
8717;BME280;4395;48.554;8.820;2023-05-13T04:52:13;95869.03;;;9.71;100.00
8717;BME280;4395;48.554;8.820;2023-05-13T04:54:17;95859.44;;;9.75;100.00
8717;BME280;4395;48.554;8.820;2023-05-13T04:56:21;95885.47;;;9.58;100.00
8717;BME280;4395;48.554;8.820;2023-05-13T04:58:24;95874.91;;;9.68;100.00
8717;BME280;4395;48.554;8.820;2023-05-13T05:00:27;95881.25;;;9.62;100.00
8717;BME280;4395;48.554;8.820;2023-05-13T05:02:30;95877.00;;;9.66;100.00
8717;BME280;4395;48.554;8.820;2023-05-13T05:04:32;95867.97;;;9.72;100.00
8717;BME280;4395;48.554;8.820;2023-05-13T05:06:38;95875.59;;;9.80;100.00
8717;BME280;4395;48.554;8.820;2023-05-13T05:08:41;95869.31;;;9.91;100.00
8717;BME280;4395;48.554;8.820;2023-05-13T05:10:44;95873.56;;;9.87;100.00
8717;BME280;4395;48.554;8.820;2023-05-13T05:12:49;95883.44;;;9.65;100.00
8717;BME280;4395;48.554;8.820;2023-05-13T05:14:52;95886.47;;;9.52;100.00
8717;BME280;4395;48.554;8.820;2023-05-13T05:16:56;95892.19;;;9.77;100.00
8717;BME280;4395;48.554;8.820;2023-05-13T05:19:01;95888.84;;;9.87;100.00
8717;BME280;4395;48.554;8.820;2023-05-13T05:21:05;95897.53;;;9.94;100.00
8717;BME280;4395;48.554;8.820;2023-05-13T05:23:08;95899.53;;;10.04;100.00
8717;BME280;4395;48.554;8.820;2023-05-13T05:25:11;95902.47;;;10.02;100.00
8717;BME280;4395;48.554;8.820;2023-05-13T05:27:15;95894.66;;;10.00;100.00
8717;BME280;4395;48.554;8.820;2023-05-13T05:29:19;95903.97;;;9.93;100.00
8717;BME280;4395;48.554;8.820;2023-05-13T05:31:22;95909.94;;;9.78;100.00
8717;BME280;4395;48.554;8.820;2023-05-13T05:33:28;95911.56;;;9.79;100.00
8717;BME280;4395;48.554;8.820;2023-05-13T05:35:31;95911.28;;;9.97;100.00
8717;BME280;4395;48.554;8.820;2023-05-13T05:37:38;95909.28;;;10.10;100.00
8717;BME280;4395;48.554;8.820;2023-05-13T05:39:40;95907.03;;;10.02;100.00
8717;BME280;4395;48.554;8.820;2023-05-13T05:41:44;95911.41;;;10.08;100.00
8717;BME280;4395;48.554;8.820;2023-05-13T05:43:47;95912.19;;;10.25;100.00
8717;BME280;4395;48.554;8.820;2023-05-13T05:45:53;95903.63;;;10.28;100.00
8717;BME280;4395;48.554;8.820;2023-05-13T05:47:56;95907.44;;;10.32;100.00
8717;BME280;4395;48.554;8.820;2023-05-13T05:49:59;95917.28;;;10.43;100.00
8717;BME280;4395;48.554;8.820;2023-05-13T05:52:04;95892.13;;;10.32;100.00
8717;BME280;4395;48.554;8.820;2023-05-13T05:54:06;95920.16;;;10.58;100.00
8717;BME280;4395;48.554;8.820;2023-05-13T05:56:12;95915.31;;;10.60;100.00
8717;BME280;4395;48.554;8.820;2023-05-13T05:58:17;95915.50;;;11.03;100.00
8717;BME280;4395;48.554;8.820;2023-05-13T06:00:20;95913.22;;;11.16;100.00
8717;BME280;4395;48.554;8.820;2023-05-13T06:02:24;95909.84;;;11.31;100.00
8717;BME280;4395;48.554;8.820;2023-05-13T06:04:28;95918.63;;;11.90;100.00
8717;BME280;4395;48.554;8.820;2023-05-13T06:06:31;95918.25;;;11.40;100.00
8717;BME280;4395;48.554;8.820;2023-05-13T06:08:34;95900.78;;;10.83;100.00
8717;BME280;4395;48.554;8.820;2023-05-13T06:10:37;95918.34;;;10.91;100.00
8717;BME280;4395;48.554;8.820;2023-05-13T06:12:40;95923.16;;;10.89;100.00
8717;BME280;4395;48.554;8.820;2023-05-13T06:14:43;95924.06;;;10.29;100.00
8717;BME280;4395;48.554;8.820;2023-05-13T06:16:46;95877.53;;;9.85;100.00
8717;BME280;4395;48.554;8.820;2023-05-13T06:18:51;95921.63;;;10.27;100.00
8717;BME280;4395;48.554;8.820;2023-05-13T06:20:53;95925.13;;;10.28;100.00
8717;BME280;4395;48.554;8.820;2023-05-13T06:22:56;95925.34;;;10.43;100.00
8717;BME280;4395;48.554;8.820;2023-05-13T06:24:59;95936.63;;;10.67;100.00
8717;BME280;4395;48.554;8.820;2023-05-13T06:27:02;95937.56;;;10.78;100.00
8717;BME280;4395;48.554;8.820;2023-05-13T06:29:05;95925.78;;;10.57;100.00
8717;BME280;4395;48.554;8.820;2023-05-13T06:31:07;95926.28;;;10.54;100.00
8717;BME280;4395;48.554;8.820;2023-05-13T06:33:11;95933.78;;;10.52;100.00
8717;BME280;4395;48.554;8.820;2023-05-13T06:35:15;95938.75;;;10.65;100.00
8717;BME280;4395;48.554;8.820;2023-05-13T06:37:18;95935.78;;;10.88;100.00
8717;BME280;4395;48.554;8.820;2023-05-13T06:39:21;95935.13;;;11.03;100.00
8717;BME280;4395;48.554;8.820;2023-05-13T06:41:25;95934.72;;;11.16;100.00
8717;BME280;4395;48.554;8.820;2023-05-13T06:43:34;95943.97;;;10.99;100.00
8717;BME280;4395;48.554;8.820;2023-05-13T06:45:49;95933.25;;;11.04;100.00
8717;BME280;4395;48.554;8.820;2023-05-13T06:47:52;95944.72;;;11.53;100.00
8717;BME280;4395;48.554;8.820;2023-05-13T06:49:55;95938.38;;;11.32;100.00
8717;BME280;4395;48.554;8.820;2023-05-13T06:51:59;95935.13;;;11.03;100.00
8717;BME280;4395;48.554;8.820;2023-05-13T06:54:02;95941.81;;;11.01;100.00
8717;BME280;4395;48.554;8.820;2023-05-13T06:56:05;95944.41;;;10.90;100.00
8717;BME280;4395;48.554;8.820;2023-05-13T06:58:08;95896.78;;;10.86;100.00
8717;BME280;4395;48.554;8.820;2023-05-13T07:00:12;95943.03;;;11.15;100.00
8717;BME280;4395;48.554;8.820;2023-05-13T07:02:15;95950.16;;;11.26;100.00
8717;BME280;4395;48.554;8.820;2023-05-13T07:04:18;95947.09;;;11.17;100.00
8717;BME280;4395;48.554;8.820;2023-05-13T07:06:21;95947.41;;;10.94;100.00
8717;BME280;4395;48.554;8.820;2023-05-13T07:08:25;95943.69;;;10.73;100.00
8717;BME280;4395;48.554;8.820;2023-05-13T07:10:28;95942.19;;;11.09;100.00
8717;BME280;4395;48.554;8.820;2023-05-13T07:12:30;95950.56;;;11.13;100.00
8717;BME280;4395;48.554;8.820;2023-05-13T07:14:33;95951.84;;;11.37;100.00
8717;BME280;4395;48.554;8.820;2023-05-13T07:16:36;95956.94;;;11.34;100.00
8717;BME280;4395;48.554;8.820;2023-05-13T07:18:39;95948.47;;;11.52;100.00
8717;BME280;4395;48.554;8.820;2023-05-13T07:20:42;95928.13;;;11.66;100.00
8717;BME280;4395;48.554;8.820;2023-05-13T07:22:44;95953.03;;;11.78;100.00
8717;BME280;4395;48.554;8.820;2023-05-13T07:24:49;95914.56;;;11.51;100.00
8717;BME280;4395;48.554;8.820;2023-05-13T07:26:51;95957.59;;;11.46;100.00
8717;BME280;4395;48.554;8.820;2023-05-13T07:28:55;95951.69;;;11.49;100.00
8717;BME280;4395;48.554;8.820;2023-05-13T07:30:58;95948.25;;;11.26;100.00
8717;BME280;4395;48.554;8.820;2023-05-13T07:33:01;95945.44;;;11.43;100.00
8717;BME280;4395;48.554;8.820;2023-05-13T07:35:05;95940.25;;;11.32;100.00
8717;BME280;4395;48.554;8.820;2023-05-13T07:37:08;95938.75;;;11.46;100.00
8717;BME280;4395;48.554;8.820;2023-05-13T07:39:11;95937.59;;;11.69;100.00
8717;BME280;4395;48.554;8.820;2023-05-13T07:41:15;95932.72;;;11.66;100.00
8717;BME280;4395;48.554;8.820;2023-05-13T07:43:17;95941.34;;;11.68;100.00
8717;BME280;4395;48.554;8.820;2023-05-13T07:45:24;95950.72;;;11.97;100.00
8717;BME280;4395;48.554;8.820;2023-05-13T07:47:27;95943.25;;;11.72;100.00
8717;BME280;4395;48.554;8.820;2023-05-13T07:49:31;95955.81;;;11.94;100.00
8717;BME280;4395;48.554;8.820;2023-05-13T07:51:34;95952.22;;;12.20;100.00
8717;BME280;4395;48.554;8.820;2023-05-13T07:53:37;95957.66;;;12.30;100.00
8717;BME280;4395;48.554;8.820;2023-05-13T07:55:40;95853.81;;;11.60;100.00
8717;BME280;4395;48.554;8.820;2023-05-13T07:57:44;95959.75;;;12.18;100.00
8717;BME280;4395;48.554;8.820;2023-05-13T07:59:47;95962.38;;;12.08;100.00
8717;BME280;4395;48.554;8.820;2023-05-13T08:01:50;95952.31;;;11.93;100.00
8717;BME280;4395;48.554;8.820;2023-05-13T08:03:53;95904.34;;;11.53;100.00
8717;BME280;4395;48.554;8.820;2023-05-13T08:05:56;95958.22;;;11.58;100.00
8717;BME280;4395;48.554;8.820;2023-05-13T08:07:59;95941.81;;;11.91;100.00
8717;BME280;4395;48.554;8.820;2023-05-13T08:10:02;95937.06;;;11.72;100.00
8717;BME280;4395;48.554;8.820;2023-05-13T08:12:05;95956.97;;;12.03;100.00
8717;BME280;4395;48.554;8.820;2023-05-13T08:14:10;95948.03;;;12.44;100.00
8717;BME280;4395;48.554;8.820;2023-05-13T08:16:12;95952.47;;;12.81;100.00
8717;BME280;4395;48.554;8.820;2023-05-13T08:18:15;95960.88;;;12.95;100.00
8717;BME280;4395;48.554;8.820;2023-05-13T08:20:18;95824.53;;;11.74;100.00
8717;BME280;4395;48.554;8.820;2023-05-13T08:22:21;95943.19;;;12.46;100.00
8717;BME280;4395;48.554;8.820;2023-05-13T08:24:24;95954.34;;;12.75;100.00
8717;BME280;4395;48.554;8.820;2023-05-13T08:26:26;95949.91;;;12.44;100.00
8717;BME280;4395;48.554;8.820;2023-05-13T08:28:29;95950.78;;;12.54;100.00
8717;BME280;4395;48.554;8.820;2023-05-13T08:30:33;95950.31;;;12.73;100.00
8717;BME280;4395;48.554;8.820;2023-05-13T08:32:36;95945.63;;;12.48;100.00
8717;BME280;4395;48.554;8.820;2023-05-13T08:34:39;95956.56;;;12.26;100.00
8717;BME280;4395;48.554;8.820;2023-05-13T08:36:42;95959.50;;;12.24;100.00
8717;BME280;4395;48.554;8.820;2023-05-13T08:38:44;95951.25;;;12.41;100.00
8717;BME280;4395;48.554;8.820;2023-05-13T08:40:47;95957.41;;;12.32;100.00
8717;BME280;4395;48.554;8.820;2023-05-13T08:42:51;95892.41;;;11.76;100.00
8717;BME280;4395;48.554;8.820;2023-05-13T08:44:57;95952.72;;;12.12;100.00
8717;BME280;4395;48.554;8.820;2023-05-13T08:47:09;95925.78;;;12.12;100.00
8717;BME280;4395;48.554;8.820;2023-05-13T08:49:14;95939.88;;;12.29;100.00
8717;BME280;4395;48.554;8.820;2023-05-13T08:51:17;95955.03;;;12.45;100.00
8717;BME280;4395;48.554;8.820;2023-05-13T08:53:21;95951.94;;;12.84;100.00
8717;BME280;4395;48.554;8.820;2023-05-13T08:55:27;95941.59;;;12.50;100.00
8717;BME280;4395;48.554;8.820;2023-05-13T08:57:30;95946.94;;;12.40;100.00
8717;BME280;4395;48.554;8.820;2023-05-13T08:59:33;95961.53;;;12.49;100.00
8717;BME280;4395;48.554;8.820;2023-05-13T09:01:36;95948.56;;;12.46;100.00
8717;BME280;4395;48.554;8.820;2023-05-13T09:03:50;95961.09;;;12.73;100.00
8717;BME280;4395;48.554;8.820;2023-05-13T09:05:54;95965.22;;;12.33;100.00
8717;BME280;4395;48.554;8.820;2023-05-13T09:07:56;95966.38;;;12.47;100.00
8717;BME280;4395;48.554;8.820;2023-05-13T09:10:00;95954.28;;;13.78;100.00
8717;BME280;4395;48.554;8.820;2023-05-13T09:12:03;95965.81;;;15.15;100.00
8717;BME280;4395;48.554;8.820;2023-05-13T09:14:06;95967.06;;;14.78;100.00
8717;BME280;4395;48.554;8.820;2023-05-13T09:16:12;95921.91;;;13.58;100.00
8717;BME280;4395;48.554;8.820;2023-05-13T09:18:16;95872.91;;;12.73;100.00
8717;BME280;4395;48.554;8.820;2023-05-13T09:20:22;95974.59;;;12.83;100.00
8717;BME280;4395;48.554;8.820;2023-05-13T09:22:25;95968.31;;;12.62;100.00
8717;BME280;4395;48.554;8.820;2023-05-13T09:24:28;95976.75;;;12.81;100.00
8717;BME280;4395;48.554;8.820;2023-05-13T09:26:31;95971.03;;;12.67;100.00
8717;BME280;4395;48.554;8.820;2023-05-13T09:28:34;95982.78;;;12.41;100.00
8717;BME280;4395;48.554;8.820;2023-05-13T09:30:37;95975.13;;;12.22;100.00
8717;BME280;4395;48.554;8.820;2023-05-13T09:33:03;95974.47;;;12.52;100.00
8717;BME280;4395;48.554;8.820;2023-05-13T09:35:11;95966.41;;;12.52;100.00
8717;BME280;4395;48.554;8.820;2023-05-13T09:37:22;95976.56;;;12.40;100.00
8717;BME280;4395;48.554;8.820;2023-05-13T09:39:25;95974.97;;;12.44;100.00
8717;BME280;4395;48.554;8.820;2023-05-13T09:41:29;95974.81;;;12.66;100.00
8717;BME280;4395;48.554;8.820;2023-05-13T09:43:33;95959.41;;;12.56;100.00
8717;BME280;4395;48.554;8.820;2023-05-13T09:45:36;95971.41;;;12.34;100.00
8717;BME280;4395;48.554;8.820;2023-05-13T09:47:39;95978.13;;;12.31;100.00
8717;BME280;4395;48.554;8.820;2023-05-13T09:49:44;95980.16;;;12.09;100.00
8717;BME280;4395;48.554;8.820;2023-05-13T09:51:47;95983.84;;;12.40;100.00
8717;BME280;4395;48.554;8.820;2023-05-13T09:53:51;95986.88;;;12.53;100.00
8717;BME280;4395;48.554;8.820;2023-05-13T09:55:56;95954.25;;;12.50;100.00
8717;BME280;4395;48.554;8.820;2023-05-13T09:58:00;95920.25;;;12.39;100.00
8717;BME280;4395;48.554;8.820;2023-05-13T10:00:05;95981.88;;;12.82;100.00
8717;BME280;4395;48.554;8.820;2023-05-13T10:02:17;95989.72;;;12.84;100.00
8717;BME280;4395;48.554;8.820;2023-05-13T10:04:20;95997.84;;;12.99;100.00
8717;BME280;4395;48.554;8.820;2023-05-13T10:06:26;95990.00;;;12.87;100.00
8717;BME280;4395;48.554;8.820;2023-05-13T10:08:29;95997.94;;;13.14;100.00
8717;BME280;4395;48.554;8.820;2023-05-13T10:10:34;95972.44;;;12.80;100.00
8717;BME280;4395;48.554;8.820;2023-05-13T10:12:38;95996.75;;;12.90;100.00
8717;BME280;4395;48.554;8.820;2023-05-13T10:14:42;95966.22;;;12.74;100.00
8717;BME280;4395;48.554;8.820;2023-05-13T10:16:45;95997.03;;;12.94;100.00
8717;BME280;4395;48.554;8.820;2023-05-13T10:18:49;95998.44;;;13.01;100.00
8717;BME280;4395;48.554;8.820;2023-05-13T10:20:52;95995.13;;;12.89;100.00
8717;BME280;4395;48.554;8.820;2023-05-13T10:22:56;95994.59;;;12.92;100.00
8717;BME280;4395;48.554;8.820;2023-05-13T10:25:00;95994.00;;;12.80;100.00
8717;BME280;4395;48.554;8.820;2023-05-13T10:27:05;95994.50;;;12.67;100.00
8717;BME280;4395;48.554;8.820;2023-05-13T10:29:08;95999.31;;;12.60;100.00
8717;BME280;4395;48.554;8.820;2023-05-13T10:31:12;95998.72;;;12.47;100.00
8717;BME280;4395;48.554;8.820;2023-05-13T10:33:15;96005.22;;;12.56;100.00
8717;BME280;4395;48.554;8.820;2023-05-13T10:35:19;95908.97;;;11.95;100.00
8717;BME280;4395;48.554;8.820;2023-05-13T10:37:41;95995.03;;;12.64;100.00
8717;BME280;4395;48.554;8.820;2023-05-13T10:42:52;95963.03;;;12.25;100.00
8717;BME280;4395;48.554;8.820;2023-05-13T10:44:58;96006.78;;;12.42;100.00
8717;BME280;4395;48.554;8.820;2023-05-13T10:47:00;95999.09;;;12.71;100.00
8717;BME280;4395;48.554;8.820;2023-05-13T10:49:03;96005.31;;;12.72;100.00
8717;BME280;4395;48.554;8.820;2023-05-13T10:51:08;95925.31;;;12.25;100.00
8717;BME280;4395;48.554;8.820;2023-05-13T10:53:19;96000.69;;;12.67;100.00
8717;BME280;4395;48.554;8.820;2023-05-13T10:55:22;96004.78;;;12.80;100.00
8717;BME280;4395;48.554;8.820;2023-05-13T10:57:26;95996.72;;;12.80;100.00
8717;BME280;4395;48.554;8.820;2023-05-13T10:59:31;95994.03;;;12.85;100.00
8717;BME280;4395;48.554;8.820;2023-05-13T11:01:37;95998.91;;;12.88;100.00
8717;BME280;4395;48.554;8.820;2023-05-13T11:03:54;95999.19;;;12.97;100.00
8717;BME280;4395;48.554;8.820;2023-05-13T11:05:59;96000.63;;;13.09;100.00
8717;BME280;4395;48.554;8.820;2023-05-13T11:08:05;95996.38;;;13.34;100.00
8717;BME280;4395;48.554;8.820;2023-05-13T11:10:24;95998.81;;;13.25;100.00
8717;BME280;4395;48.554;8.820;2023-05-13T11:12:28;95997.47;;;13.33;100.00